Share

Normanna, TX (78142)

12:17 PM CDT on April 24, 2014 (GMT -0500)
Beeville (KBEA) Elev 269 ft | 28.37 °N, 97.80 °W | Change Station

Current weather conditions updated 22 minutes ago

Mostly Cloudy
Mostly Cloudy
80 °F
Feels Like 82 °F
N
8
Wind Variable Wind from South
Sunrise 6:56 AM
Sunset 8:02 PM
Moon Waning Crescent

Today is forecast to be nearly the same temperature as yesterday.

Pressure 29.87 in
Visibility 10.0 miles
Clouds Mostly Cloudy 2900 ft
Heat Index 82 °F
Dew Point 66 °F
Humidity 62%
Rainfall 0.00 in
Snow Depth Not available.
UV 6 out of 16
Pollen 7.30 out of 12
Air Quality Not available.
Flu Activity Local Activity
METAR KBEA 241655Z AUTO 18007KT 10SM BKN029 27/19 A2987 RMK AO2 T02680190

More Conditions Fewer Conditions

Pressure 29.87 in
Visibility 10.0 miles
Clouds Mostly Cloudy 2900 ft
Heat Index 82 °F
Dew Point 66 °F
Humidity 62%
Rainfall 0.00 in
Snow Depth Not available.
UV 6 out of 16
Pollen 7.30 out of 12
Air Quality Not available.
Flu Activity Local Activity
METAR KBEA 241655Z AUTO 18007KT 10SM BKN029 27/19 A2987 RMK AO2 T02680190

More Conditions Fewer Conditions

10-Day Weather Forecast

Almanac

Astronomy

Apr. 24, 2014 Rise Set
Actual Time 6:56 AM CDT 8:02 PM CDT
Civil Twilight 6:32 AM CDT 8:26 PM CDT
Nautical Twilight 6:03 AM CDT 8:55 PM CDT
Astronomical Twilight 5:33 AM CDT 9:25 PM CDT
Moon 3:43 AM CDT 3:41 PM CDT
Length of Visible Light 13h 54m
Length of Day
13h 05m
Tomorrow will be 1m 31s longer.
Waning Crescent, 24% of the Moon is Illuminated
Today
Waning Crescent
Apr 29
New
May 6
First Quarter
May 14
Full
May 21
Last Quarter

Today's Extremes

State Highs State Lows

Community

  • Sunset at Apalachicola Bay, Florida
    Sunset at Apalachicola Bay, Florida
  • Clouds mov'n in
    Clouds mov'n in
  • Stacked
    Stacked
  • clouds approaching Red Sox Nation
    clouds approaching Red Sox Nation
  • Balance
    Balance

WunderPhotos

Upload Photos

1,704,675 photos uploaded!

Nearby

Snow Depth

Station Depth Elevation
No new snow has been reported.

Coastal Water Temperatures

Place Temperature
No Stations Reporting

Earthquake Activity

City Distance Mag. Time & Date
No recent earthquake activity has been reported nearby.
Minimum magnitude displayed is 2.5.

Nearby Weather Stations

Station Location Temp. Heat Index Dew Point Humidity Wind Precip. Elev Updated Type
RAWS GEORGE WEST TX, Three Rivers, TX 79 °F 81 °F 66 °F 65% South  at  9 mph 0.00 in / hr 214 ft 11:06 AM CDT MADIS
Sunset Villas, Mathis, TX 81.7 °F 85 °F 68 °F 63% South  at  4.9 mph 0.00 in / hr 120 ft 12:16 PM CDT Rapid Fire
MesoWest MATHIS , Corpus Christi, TX 74 °F 72 °F - - North  at  - 0.00 in / hr 145 ft 10:20 AM CDT MADIS
Karnes County, Karnes City, TX 78.8 °F 81 °F 67 °F 68% North  at  4.0 mph 0.00 in / hr 381 ft 12:16 PM CDT Rapid Fire

Show More Stations Show Fewer Stations

What do you think?

We're not finished. Please let us know what you like, what you don't like, and what you are still missing.